sensor_id;sensor_type;location;lat;lon;timestamp;P1;durP1;ratioP1;P2;durP2;ratioP2
68700;SDS011;55682;51.114;5.882;2024-01-27T00:01:50;5.49;;;5.40;;
68700;SDS011;55682;51.114;5.882;2024-01-27T00:04:16;5.74;;;5.64;;
68700;SDS011;55682;51.114;5.882;2024-01-27T00:06:42;6.12;;;5.94;;
68700;SDS011;55682;51.114;5.882;2024-01-27T00:09:08;5.87;;;5.66;;
68700;SDS011;55682;51.114;5.882;2024-01-27T00:11:33;6.54;;;6.34;;
68700;SDS011;55682;51.114;5.882;2024-01-27T00:13:59;6.77;;;6.61;;
68700;SDS011;55682;51.114;5.882;2024-01-27T00:16:26;6.12;;;5.99;;
68700;SDS011;55682;51.114;5.882;2024-01-27T00:18:52;6.03;;;5.95;;
68700;SDS011;55682;51.114;5.882;2024-01-27T00:21:18;5.88;;;5.82;;
68700;SDS011;55682;51.114;5.882;2024-01-27T00:23:43;6.30;;;6.27;;
68700;SDS011;55682;51.114;5.882;2024-01-27T00:26:09;6.41;;;6.37;;
68700;SDS011;55682;51.114;5.882;2024-01-27T00:28:36;6.37;;;6.29;;
68700;SDS011;55682;51.114;5.882;2024-01-27T00:31:02;6.51;;;6.42;;
68700;SDS011;55682;51.114;5.882;2024-01-27T00:33:28;6.40;;;6.34;;
68700;SDS011;55682;51.114;5.882;2024-01-27T00:35:54;6.65;;;6.55;;
68700;SDS011;55682;51.114;5.882;2024-01-27T00:38:19;6.80;;;6.70;;
68700;SDS011;55682;51.114;5.882;2024-01-27T00:40:45;6.44;;;6.41;;
68700;SDS011;55682;51.114;5.882;2024-01-27T00:43:11;6.82;;;6.79;;
68700;SDS011;55682;51.114;5.882;2024-01-27T00:45:37;6.93;;;6.81;;
68700;SDS011;55682;51.114;5.882;2024-01-27T00:48:03;6.79;;;6.61;;
68700;SDS011;55682;51.114;5.882;2024-01-27T00:50:29;6.71;;;6.51;;
68700;SDS011;55682;51.114;5.882;2024-01-27T00:52:55;6.86;;;6.80;;
68700;SDS011;55682;51.114;5.882;2024-01-27T00:55:21;6.62;;;6.50;;
68700;SDS011;55682;51.114;5.882;2024-01-27T00:57:46;6.60;;;6.58;;
68700;SDS011;55682;51.114;5.882;2024-01-27T01:00:12;7.11;;;7.05;;
68700;SDS011;55682;51.114;5.882;2024-01-27T01:02:39;6.65;;;6.63;;
68700;SDS011;55682;51.114;5.882;2024-01-27T01:05:06;6.90;;;6.88;;
68700;SDS011;55682;51.114;5.882;2024-01-27T01:07:32;7.12;;;7.05;;
68700;SDS011;55682;51.114;5.882;2024-01-27T01:09:58;7.44;;;7.25;;
68700;SDS011;55682;51.114;5.882;2024-01-27T01:12:24;7.22;;;6.99;;
68700;SDS011;55682;51.114;5.882;2024-01-27T01:14:53;7.41;;;7.34;;
68700;SDS011;55682;51.114;5.882;2024-01-27T01:17:18;6.94;;;6.81;;
68700;SDS011;55682;51.114;5.882;2024-01-27T01:19:50;7.08;;;6.92;;
68700;SDS011;55682;51.114;5.882;2024-01-27T01:22:16;7.25;;;7.16;;
68700;SDS011;55682;51.114;5.882;2024-01-27T01:24:42;6.56;;;6.53;;
68700;SDS011;55682;51.114;5.882;2024-01-27T01:27:08;6.96;;;6.83;;
68700;SDS011;55682;51.114;5.882;2024-01-27T01:29:33;7.38;;;7.24;;
68700;SDS011;55682;51.114;5.882;2024-01-27T01:32:00;7.18;;;7.11;;
68700;SDS011;55682;51.114;5.882;2024-01-27T01:34:28;7.29;;;7.14;;
68700;SDS011;55682;51.114;5.882;2024-01-27T01:36:54;7.20;;;7.09;;
68700;SDS011;55682;51.114;5.882;2024-01-27T01:39:20;7.16;;;7.08;;
68700;SDS011;55682;51.114;5.882;2024-01-27T01:41:45;6.65;;;6.63;;
68700;SDS011;55682;51.114;5.882;2024-01-27T01:44:11;7.27;;;7.15;;
68700;SDS011;55682;51.114;5.882;2024-01-27T01:46:37;6.91;;;6.81;;
68700;SDS011;55682;51.114;5.882;2024-01-27T01:49:03;6.97;;;6.83;;
68700;SDS011;55682;51.114;5.882;2024-01-27T01:51:30;6.71;;;6.61;;
68700;SDS011;55682;51.114;5.882;2024-01-27T01:53:59;6.64;;;6.57;;
68700;SDS011;55682;51.114;5.882;2024-01-27T01:56:25;6.95;;;6.88;;
68700;SDS011;55682;51.114;5.882;2024-01-27T01:58:53;6.48;;;6.40;;
68700;SDS011;55682;51.114;5.882;2024-01-27T02:01:19;6.54;;;6.44;;
68700;SDS011;55682;51.114;5.882;2024-01-27T02:06:21;6.24;;;6.18;;
68700;SDS011;55682;51.114;5.882;2024-01-27T02:08:47;6.98;;;6.96;;
68700;SDS011;55682;51.114;5.882;2024-01-27T02:11:13;7.05;;;6.96;;
68700;SDS011;55682;51.114;5.882;2024-01-27T02:13:39;6.25;;;6.17;;
68700;SDS011;55682;51.114;5.882;2024-01-27T02:16:05;6.58;;;6.54;;
68700;SDS011;55682;51.114;5.882;2024-01-27T02:18:31;6.31;;;6.26;;
68700;SDS011;55682;51.114;5.882;2024-01-27T02:20:57;6.47;;;6.40;;
68700;SDS011;55682;51.114;5.882;2024-01-27T02:23:22;6.35;;;6.25;;
68700;SDS011;55682;51.114;5.882;2024-01-27T02:25:48;6.58;;;6.51;;
68700;SDS011;55682;51.114;5.882;2024-01-27T02:28:16;5.99;;;5.92;;
68700;SDS011;55682;51.114;5.882;2024-01-27T02:30:42;6.12;;;6.05;;
68700;SDS011;55682;51.114;5.882;2024-01-27T02:33:08;5.99;;;5.85;;
68700;SDS011;55682;51.114;5.882;2024-01-27T02:35:34;6.03;;;5.85;;
68700;SDS011;55682;51.114;5.882;2024-01-27T02:37:59;6.58;;;6.30;;
68700;SDS011;55682;51.114;5.882;2024-01-27T02:40:26;6.23;;;6.03;;
68700;SDS011;55682;51.114;5.882;2024-01-27T02:42:51;5.79;;;5.63;;
68700;SDS011;55682;51.114;5.882;2024-01-27T02:45:17;5.69;;;5.56;;
68700;SDS011;55682;51.114;5.882;2024-01-27T02:47:43;5.69;;;5.59;;
68700;SDS011;55682;51.114;5.882;2024-01-27T02:50:09;6.06;;;5.89;;
68700;SDS011;55682;51.114;5.882;2024-01-27T02:52:36;5.87;;;5.75;;
68700;SDS011;55682;51.114;5.882;2024-01-27T02:55:01;5.86;;;5.73;;
68700;SDS011;55682;51.114;5.882;2024-01-27T02:57:27;5.85;;;5.69;;
68700;SDS011;55682;51.114;5.882;2024-01-27T02:59:53;5.66;;;5.61;;
68700;SDS011;55682;51.114;5.882;2024-01-27T03:02:19;5.66;;;5.53;;
68700;SDS011;55682;51.114;5.882;2024-01-27T03:04:45;5.69;;;5.60;;
68700;SDS011;55682;51.114;5.882;2024-01-27T03:07:10;5.77;;;5.64;;
68700;SDS011;55682;51.114;5.882;2024-01-27T03:09:36;5.84;;;5.68;;
68700;SDS011;55682;51.114;5.882;2024-01-27T03:12:02;6.36;;;6.13;;
68700;SDS011;55682;51.114;5.882;2024-01-27T03:14:28;5.84;;;5.72;;
68700;SDS011;55682;51.114;5.882;2024-01-27T03:16:54;6.21;;;6.01;;
68700;SDS011;55682;51.114;5.882;2024-01-27T03:19:20;5.90;;;5.69;;
68700;SDS011;55682;51.114;5.882;2024-01-27T03:21:45;6.18;;;5.91;;
68700;SDS011;55682;51.114;5.882;2024-01-27T03:24:11;5.65;;;5.55;;
68700;SDS011;55682;51.114;5.882;2024-01-27T03:26:37;5.58;;;5.41;;
68700;SDS011;55682;51.114;5.882;2024-01-27T03:29:03;6.10;;;5.88;;
68700;SDS011;55682;51.114;5.882;2024-01-27T03:31:32;5.87;;;5.69;;
68700;SDS011;55682;51.114;5.882;2024-01-27T03:33:59;5.70;;;5.51;;
68700;SDS011;55682;51.114;5.882;2024-01-27T03:36:26;5.73;;;5.46;;
68700;SDS011;55682;51.114;5.882;2024-01-27T03:38:53;5.99;;;5.73;;
68700;SDS011;55682;51.114;5.882;2024-01-27T03:41:19;5.97;;;5.75;;
68700;SDS011;55682;51.114;5.882;2024-01-27T03:43:45;6.22;;;5.94;;
68700;SDS011;55682;51.114;5.882;2024-01-27T03:46:11;5.78;;;5.58;;
68700;SDS011;55682;51.114;5.882;2024-01-27T03:48:37;6.16;;;5.86;;
68700;SDS011;55682;51.114;5.882;2024-01-27T03:51:03;5.74;;;5.45;;
68700;SDS011;55682;51.114;5.882;2024-01-27T03:53:29;6.28;;;6.05;;
68700;SDS011;55682;51.114;5.882;2024-01-27T03:55:55;5.68;;;5.58;;
68700;SDS011;55682;51.114;5.882;2024-01-27T03:58:25;6.17;;;5.95;;
68700;SDS011;55682;51.114;5.882;2024-01-27T04:00:51;6.43;;;6.11;;
68700;SDS011;55682;51.114;5.882;2024-01-27T04:03:17;6.50;;;6.20;;
68700;SDS011;55682;51.114;5.882;2024-01-27T04:05:43;6.29;;;6.00;;
68700;SDS011;55682;51.114;5.882;2024-01-27T04:08:09;6.41;;;6.10;;
68700;SDS011;55682;51.114;5.882;2024-01-27T04:10:36;6.58;;;6.26;;
68700;SDS011;55682;51.114;5.882;2024-01-27T04:13:02;6.14;;;5.98;;
68700;SDS011;55682;51.114;5.882;2024-01-27T04:15:28;6.61;;;6.26;;
68700;SDS011;55682;51.114;5.882;2024-01-27T04:17:53;6.59;;;6.15;;
68700;SDS011;55682;51.114;5.882;2024-01-27T04:20:19;6.58;;;6.28;;
68700;SDS011;55682;51.114;5.882;2024-01-27T04:22:45;7.04;;;6.61;;
68700;SDS011;55682;51.114;5.882;2024-01-27T04:25:11;7.17;;;6.66;;
68700;SDS011;55682;51.114;5.882;2024-01-27T04:27:37;6.79;;;6.41;;
68700;SDS011;55682;51.114;5.882;2024-01-27T04:30:07;6.67;;;6.42;;
68700;SDS011;55682;51.114;5.882;2024-01-27T04:32:34;6.37;;;6.15;;
68700;SDS011;55682;51.114;5.882;2024-01-27T04:35:01;6.65;;;6.43;;
68700;SDS011;55682;51.114;5.882;2024-01-27T04:37:28;6.34;;;6.12;;
68700;SDS011;55682;51.114;5.882;2024-01-27T04:39:54;6.68;;;6.43;;
68700;SDS011;55682;51.114;5.882;2024-01-27T04:42:20;6.44;;;6.27;;
68700;SDS011;55682;51.114;5.882;2024-01-27T04:44:46;7.02;;;6.79;;
68700;SDS011;55682;51.114;5.882;2024-01-27T04:47:12;7.10;;;6.77;;
68700;SDS011;55682;51.114;5.882;2024-01-27T04:49:38;7.02;;;6.65;;
68700;SDS011;55682;51.114;5.882;2024-01-27T04:52:03;6.79;;;6.55;;
68700;SDS011;55682;51.114;5.882;2024-01-27T04:54:29;7.02;;;6.80;;
68700;SDS011;55682;51.114;5.882;2024-01-27T04:56:55;7.08;;;6.90;;
68700;SDS011;55682;51.114;5.882;2024-01-27T04:59:21;7.18;;;6.93;;
68700;SDS011;55682;51.114;5.882;2024-01-27T05:05:35;6.87;;;6.62;;
68700;SDS011;55682;51.114;5.882;2024-01-27T05:08:01;7.02;;;6.65;;
68700;SDS011;55682;51.114;5.882;2024-01-27T05:10:27;7.28;;;6.92;;
68700;SDS011;55682;51.114;5.882;2024-01-27T05:12:53;7.23;;;6.88;;
68700;SDS011;55682;51.114;5.882;2024-01-27T05:15:20;7.92;;;7.37;;
68700;SDS011;55682;51.114;5.882;2024-01-27T05:17:46;7.15;;;6.75;;
68700;SDS011;55682;51.114;5.882;2024-01-27T05:20:12;6.87;;;6.46;;
68700;SDS011;55682;51.114;5.882;2024-01-27T05:22:37;7.41;;;6.95;;
68700;SDS011;55682;51.114;5.882;2024-01-27T05:25:03;7.71;;;7.26;;
68700;SDS011;55682;51.114;5.882;2024-01-27T05:27:29;7.73;;;7.16;;
68700;SDS011;55682;51.114;5.882;2024-01-27T05:29:55;7.60;;;7.18;;
68700;SDS011;55682;51.114;5.882;2024-01-27T05:32:21;7.98;;;7.51;;
68700;SDS011;55682;51.114;5.882;2024-01-27T05:34:47;7.69;;;7.37;;
68700;SDS011;55682;51.114;5.882;2024-01-27T05:37:12;7.13;;;6.86;;
68700;SDS011;55682;51.114;5.882;2024-01-27T05:39:38;7.20;;;6.91;;
68700;SDS011;55682;51.114;5.882;2024-01-27T05:42:04;7.24;;;6.99;;
68700;SDS011;55682;51.114;5.882;2024-01-27T05:44:30;7.37;;;7.08;;
68700;SDS011;55682;51.114;5.882;2024-01-27T05:46:55;6.63;;;6.43;;
68700;SDS011;55682;51.114;5.882;2024-01-27T05:49:21;6.91;;;6.72;;
68700;SDS011;55682;51.114;5.882;2024-01-27T05:51:47;7.12;;;6.85;;
68700;SDS011;55682;51.114;5.882;2024-01-27T05:54:15;7.20;;;6.94;;
68700;SDS011;55682;51.114;5.882;2024-01-27T05:56:42;7.32;;;6.98;;
68700;SDS011;55682;51.114;5.882;2024-01-27T05:59:08;7.26;;;6.90;;
68700;SDS011;55682;51.114;5.882;2024-01-27T06:01:34;7.27;;;6.95;;
68700;SDS011;55682;51.114;5.882;2024-01-27T06:04:00;6.92;;;6.66;;
68700;SDS011;55682;51.114;5.882;2024-01-27T06:06:25;7.77;;;7.46;;
68700;SDS011;55682;51.114;5.882;2024-01-27T06:08:51;7.22;;;6.92;;
68700;SDS011;55682;51.114;5.882;2024-01-27T06:11:23;7.27;;;6.90;;
68700;SDS011;55682;51.114;5.882;2024-01-27T06:13:50;6.88;;;6.71;;
68700;SDS011;55682;51.114;5.882;2024-01-27T06:16:17;7.13;;;6.80;;
68700;SDS011;55682;51.114;5.882;2024-01-27T06:18:44;7.13;;;6.73;;
68700;SDS011;55682;51.114;5.882;2024-01-27T06:21:10;7.40;;;7.04;;
68700;SDS011;55682;51.114;5.882;2024-01-27T06:23:36;7.24;;;6.86;;
68700;SDS011;55682;51.114;5.882;2024-01-27T06:26:07;7.69;;;7.24;;
68700;SDS011;55682;51.114;5.882;2024-01-27T06:28:34;7.26;;;6.85;;
68700;SDS011;55682;51.114;5.882;2024-01-27T06:31:02;7.53;;;7.14;;
68700;SDS011;55682;51.114;5.882;2024-01-27T06:33:28;7.37;;;6.94;;
68700;SDS011;55682;51.114;5.882;2024-01-27T06:35:54;7.23;;;6.89;;
68700;SDS011;55682;51.114;5.882;2024-01-27T06:38:20;7.87;;;7.39;;
68700;SDS011;55682;51.114;5.882;2024-01-27T06:40:45;7.31;;;6.87;;
68700;SDS011;55682;51.114;5.882;2024-01-27T06:43:12;7.48;;;6.90;;
68700;SDS011;55682;51.114;5.882;2024-01-27T06:45:38;7.55;;;6.97;;
68700;SDS011;55682;51.114;5.882;2024-01-27T06:48:05;7.73;;;7.31;;
68700;SDS011;55682;51.114;5.882;2024-01-27T06:50:32;7.17;;;6.72;;
68700;SDS011;55682;51.114;5.882;2024-01-27T06:52:58;7.56;;;7.02;;
68700;SDS011;55682;51.114;5.882;2024-01-27T06:55:24;7.33;;;6.78;;
68700;SDS011;55682;51.114;5.882;2024-01-27T06:57:50;8.13;;;7.38;;
68700;SDS011;55682;51.114;5.882;2024-01-27T07:00:16;8.22;;;7.25;;
68700;SDS011;55682;51.114;5.882;2024-01-27T07:02:43;7.54;;;6.72;;
68700;SDS011;55682;51.114;5.882;2024-01-27T07:05:09;7.51;;;6.74;;
68700;SDS011;55682;51.114;5.882;2024-01-27T07:07:35;7.91;;;7.06;;
68700;SDS011;55682;51.114;5.882;2024-01-27T07:10:01;7.43;;;6.89;;
68700;SDS011;55682;51.114;5.882;2024-01-27T07:12:27;7.82;;;7.11;;
68700;SDS011;55682;51.114;5.882;2024-01-27T07:14:53;7.93;;;7.20;;
68700;SDS011;55682;51.114;5.882;2024-01-27T07:17:20;7.89;;;7.26;;
68700;SDS011;55682;51.114;5.882;2024-01-27T07:19:46;7.69;;;7.15;;
68700;SDS011;55682;51.114;5.882;2024-01-27T07:22:11;7.80;;;7.08;;
68700;SDS011;55682;51.114;5.882;2024-01-27T07:24:37;7.93;;;7.27;;
68700;SDS011;55682;51.114;5.882;2024-01-27T07:27:03;8.27;;;7.52;;
68700;SDS011;55682;51.114;5.882;2024-01-27T07:29:29;8.32;;;7.45;;
68700;SDS011;55682;51.114;5.882;2024-01-27T07:31:55;7.47;;;6.79;;
68700;SDS011;55682;51.114;5.882;2024-01-27T07:34:20;7.15;;;6.64;;
68700;SDS011;55682;51.114;5.882;2024-01-27T07:36:46;7.60;;;6.95;;
68700;SDS011;55682;51.114;5.882;2024-01-27T07:39:14;7.39;;;6.95;;
68700;SDS011;55682;51.114;5.882;2024-01-27T07:41:40;7.24;;;6.71;;
68700;SDS011;55682;51.114;5.882;2024-01-27T07:44:06;6.55;;;6.18;;
68700;SDS011;55682;51.114;5.882;2024-01-27T07:46:33;5.94;;;5.61;;
68700;SDS011;55682;51.114;5.882;2024-01-27T07:48:59;6.54;;;6.23;;
68700;SDS011;55682;51.114;5.882;2024-01-27T07:51:25;6.52;;;6.13;;
68700;SDS011;55682;51.114;5.882;2024-01-27T07:53:50;6.83;;;6.26;;
68700;SDS011;55682;51.114;5.882;2024-01-27T07:56:16;6.86;;;6.42;;
68700;SDS011;55682;51.114;5.882;2024-01-27T07:58:42;5.97;;;5.65;;
68700;SDS011;55682;51.114;5.882;2024-01-27T08:01:08;6.36;;;6.08;;
68700;SDS011;55682;51.114;5.882;2024-01-27T08:03:33;6.30;;;6.01;;
68700;SDS011;55682;51.114;5.882;2024-01-27T08:05:59;5.95;;;5.67;;
68700;SDS011;55682;51.114;5.882;2024-01-27T08:08:30;6.49;;;6.14;;
68700;SDS011;55682;51.114;5.882;2024-01-27T08:10:56;6.37;;;6.02;;
68700;SDS011;55682;51.114;5.882;2024-01-27T08:13:21;5.98;;;5.65;;
68700;SDS011;55682;51.114;5.882;2024-01-27T08:15:47;6.23;;;5.88;;
68700;SDS011;55682;51.114;5.882;2024-01-27T08:18:13;5.97;;;5.66;;
68700;SDS011;55682;51.114;5.882;2024-01-27T08:20:38;6.68;;;6.34;;
68700;SDS011;55682;51.114;5.882;2024-01-27T08:23:04;6.04;;;5.76;;
68700;SDS011;55682;51.114;5.882;2024-01-27T08:25:30;6.50;;;6.25;;
68700;SDS011;55682;51.114;5.882;2024-01-27T08:27:56;5.92;;;5.76;;
68700;SDS011;55682;51.114;5.882;2024-01-27T08:30:22;6.26;;;6.00;;
68700;SDS011;55682;51.114;5.882;2024-01-27T08:32:48;6.28;;;5.97;;
68700;SDS011;55682;51.114;5.882;2024-01-27T08:35:14;6.05;;;5.69;;
68700;SDS011;55682;51.114;5.882;2024-01-27T08:37:39;5.41;;;5.10;;
68700;SDS011;55682;51.114;5.882;2024-01-27T08:40:05;5.02;;;4.85;;
68700;SDS011;55682;51.114;5.882;2024-01-27T08:42:32;5.15;;;5.00;;
68700;SDS011;55682;51.114;5.882;2024-01-27T08:44:58;5.27;;;5.13;;
68700;SDS011;55682;51.114;5.882;2024-01-27T08:47:24;5.34;;;5.21;;
68700;SDS011;55682;51.114;5.882;2024-01-27T08:49:49;4.86;;;4.73;;
68700;SDS011;55682;51.114;5.882;2024-01-27T08:52:15;5.05;;;4.87;;
68700;SDS011;55682;51.114;5.882;2024-01-27T08:54:41;5.10;;;4.83;;
68700;SDS011;55682;51.114;5.882;2024-01-27T08:57:07;5.08;;;4.85;;
68700;SDS011;55682;51.114;5.882;2024-01-27T08:59:32;5.61;;;5.34;;
68700;SDS011;55682;51.114;5.882;2024-01-27T09:01:58;5.48;;;5.22;;
68700;SDS011;55682;51.114;5.882;2024-01-27T09:04:24;5.06;;;4.87;;
68700;SDS011;55682;51.114;5.882;2024-01-27T09:06:50;5.48;;;5.26;;
68700;SDS011;55682;51.114;5.882;2024-01-27T09:09:16;4.95;;;4.71;;
68700;SDS011;55682;51.114;5.882;2024-01-27T09:11:42;5.05;;;4.83;;
68700;SDS011;55682;51.114;5.882;2024-01-27T09:14:08;5.08;;;4.80;;
68700;SDS011;55682;51.114;5.882;2024-01-27T09:16:33;5.51;;;5.17;;
68700;SDS011;55682;51.114;5.882;2024-01-27T09:18:59;5.35;;;4.98;;
68700;SDS011;55682;51.114;5.882;2024-01-27T09:21:25;5.78;;;5.48;;
68700;SDS011;55682;51.114;5.882;2024-01-27T09:23:54;5.79;;;5.61;;
68700;SDS011;55682;51.114;5.882;2024-01-27T09:26:20;5.72;;;5.60;;
68700;SDS011;55682;51.114;5.882;2024-01-27T09:28:48;6.08;;;5.85;;
68700;SDS011;55682;51.114;5.882;2024-01-27T09:31:22;6.31;;;5.98;;
68700;SDS011;55682;51.114;5.882;2024-01-27T09:33:49;5.96;;;5.56;;
68700;SDS011;55682;51.114;5.882;2024-01-27T09:36:17;5.95;;;5.46;;
68700;SDS011;55682;51.114;5.882;2024-01-27T09:38:43;5.76;;;5.44;;
68700;SDS011;55682;51.114;5.882;2024-01-27T09:41:08;5.38;;;5.09;;
68700;SDS011;55682;51.114;5.882;2024-01-27T09:43:37;4.21;;;4.03;;
68700;SDS011;55682;51.114;5.882;2024-01-27T09:46:10;4.61;;;4.34;;
68700;SDS011;55682;51.114;5.882;2024-01-27T09:48:37;4.73;;;4.41;;
68700;SDS011;55682;51.114;5.882;2024-01-27T09:51:03;3.99;;;3.68;;
68700;SDS011;55682;51.114;5.882;2024-01-27T09:53:30;4.15;;;3.78;;
68700;SDS011;55682;51.114;5.882;2024-01-27T09:55:59;3.75;;;3.45;;
68700;SDS011;55682;51.114;5.882;2024-01-27T09:58:28;4.52;;;4.21;;
68700;SDS011;55682;51.114;5.882;2024-01-27T10:00:59;4.43;;;4.07;;
68700;SDS011;55682;51.114;5.882;2024-01-27T10:03:26;4.85;;;4.42;;
68700;SDS011;55682;51.114;5.882;2024-01-27T10:05:54;4.53;;;4.17;;
68700;SDS011;55682;51.114;5.882;2024-01-27T10:08:23;4.20;;;3.83;;
68700;SDS011;55682;51.114;5.882;2024-01-27T10:10:50;4.24;;;3.91;;
68700;SDS011;55682;51.114;5.882;2024-01-27T10:13:21;4.43;;;4.12;;
68700;SDS011;55682;51.114;5.882;2024-01-27T10:16:04;4.48;;;4.16;;
68700;SDS011;55682;51.114;5.882;2024-01-27T10:18:32;4.51;;;4.18;;
68700;SDS011;55682;51.114;5.882;2024-01-27T10:20:59;4.44;;;4.05;;
68700;SDS011;55682;51.114;5.882;2024-01-27T10:23:25;4.27;;;3.95;;
68700;SDS011;55682;51.114;5.882;2024-01-27T10:25:52;4.28;;;4.02;;
68700;SDS011;55682;51.114;5.882;2024-01-27T10:28:18;4.59;;;4.33;;
68700;SDS011;55682;51.114;5.882;2024-01-27T10:30:44;4.66;;;4.46;;
68700;SDS011;55682;51.114;5.882;2024-01-27T10:33:11;4.33;;;4.16;;
68700;SDS011;55682;51.114;5.882;2024-01-27T10:35:40;4.04;;;3.86;;
68700;SDS011;55682;51.114;5.882;2024-01-27T10:38:09;4.37;;;4.17;;
68700;SDS011;55682;51.114;5.882;2024-01-27T10:40:35;4.53;;;4.35;;
68700;SDS011;55682;51.114;5.882;2024-01-27T10:43:03;4.06;;;3.88;;
68700;SDS011;55682;51.114;5.882;2024-01-27T10:45:36;4.54;;;4.30;;
68700;SDS011;55682;51.114;5.882;2024-01-27T10:48:07;4.57;;;4.31;;
68700;SDS011;55682;51.114;5.882;2024-01-27T10:50:37;3.89;;;3.72;;
68700;SDS011;55682;51.114;5.882;2024-01-27T10:53:23;4.27;;;4.07;;
68700;SDS011;55682;51.114;5.882;2024-01-27T10:55:50;4.59;;;4.37;;
68700;SDS011;55682;51.114;5.882;2024-01-27T10:58:22;4.35;;;4.16;;
68700;SDS011;55682;51.114;5.882;2024-01-27T11:00:50;3.91;;;3.78;;
68700;SDS011;55682;51.114;5.882;2024-01-27T11:03:20;3.95;;;3.83;;
68700;SDS011;55682;51.114;5.882;2024-01-27T11:05:47;4.24;;;4.08;;
68700;SDS011;55682;51.114;5.882;2024-01-27T11:08:16;4.50;;;4.32;;
68700;SDS011;55682;51.114;5.882;2024-01-27T11:10:44;4.15;;;4.03;;
68700;SDS011;55682;51.114;5.882;2024-01-27T11:13:11;4.23;;;4.08;;
68700;SDS011;55682;51.114;5.882;2024-01-27T11:15:38;4.02;;;3.91;;
68700;SDS011;55682;51.114;5.882;2024-01-27T11:18:04;3.95;;;3.85;;
68700;SDS011;55682;51.114;5.882;2024-01-27T11:20:33;3.97;;;3.86;;
68700;SDS011;55682;51.114;5.882;2024-01-27T11:23:12;3.93;;;3.83;;
68700;SDS011;55682;51.114;5.882;2024-01-27T11:25:42;3.52;;;3.39;;
68700;SDS011;55682;51.114;5.882;2024-01-27T11:28:12;3.89;;;3.75;;
68700;SDS011;55682;51.114;5.882;2024-01-27T11:30:45;4.00;;;3.90;;
68700;SDS011;55682;51.114;5.882;2024-01-27T11:33:12;3.82;;;3.70;;
68700;SDS011;55682;51.114;5.882;2024-01-27T11:35:38;3.54;;;3.40;;
68700;SDS011;55682;51.114;5.882;2024-01-27T11:38:04;3.97;;;3.83;;
68700;SDS011;55682;51.114;5.882;2024-01-27T11:40:30;4.02;;;3.85;;
68700;SDS011;55682;51.114;5.882;2024-01-27T11:42:57;3.55;;;3.40;;
68700;SDS011;55682;51.114;5.882;2024-01-27T11:45:26;3.53;;;3.41;;
68700;SDS011;55682;51.114;5.882;2024-01-27T11:47:55;3.90;;;3.74;;
68700;SDS011;55682;51.114;5.882;2024-01-27T11:50:22;4.12;;;3.81;;
68700;SDS011;55682;51.114;5.882;2024-01-27T11:52:49;3.58;;;3.34;;
68700;SDS011;55682;51.114;5.882;2024-01-27T11:55:15;3.04;;;2.86;;
68700;SDS011;55682;51.114;5.882;2024-01-27T11:57:41;3.73;;;3.49;;
68700;SDS011;55682;51.114;5.882;2024-01-27T12:00:07;3.07;;;2.91;;
68700;SDS011;55682;51.114;5.882;2024-01-27T12:02:37;2.92;;;2.77;;
68700;SDS011;55682;51.114;5.882;2024-01-27T12:05:04;3.12;;;2.90;;
68700;SDS011;55682;51.114;5.882;2024-01-27T12:07:30;3.26;;;2.98;;
68700;SDS011;55682;51.114;5.882;2024-01-27T12:09:56;3.46;;;3.13;;
68700;SDS011;55682;51.114;5.882;2024-01-27T12:12:22;3.40;;;3.05;;
68700;SDS011;55682;51.114;5.882;2024-01-27T12:14:48;3.09;;;2.75;;
68700;SDS011;55682;51.114;5.882;2024-01-27T12:17:16;3.21;;;2.88;;
68700;SDS011;55682;51.114;5.882;2024-01-27T12:19:50;3.12;;;2.73;;
68700;SDS011;55682;51.114;5.882;2024-01-27T12:22:21;3.28;;;2.82;;
68700;SDS011;55682;51.114;5.882;2024-01-27T12:24:54;2.94;;;2.56;;
68700;SDS011;55682;51.114;5.882;2024-01-27T12:27:22;2.60;;;2.31;;
68700;SDS011;55682;51.114;5.882;2024-01-27T12:29:48;2.84;;;2.55;;
68700;SDS011;55682;51.114;5.882;2024-01-27T12:32:17;3.01;;;2.61;;
68700;SDS011;55682;51.114;5.882;2024-01-27T12:34:44;3.31;;;2.89;;
68700;SDS011;55682;51.114;5.882;2024-01-27T12:37:13;2.93;;;2.56;;
68700;SDS011;55682;51.114;5.882;2024-01-27T12:39:43;2.90;;;2.47;;
68700;SDS011;55682;51.114;5.882;2024-01-27T12:42:12;2.97;;;2.51;;
68700;SDS011;55682;51.114;5.882;2024-01-27T12:44:38;2.86;;;2.39;;
68700;SDS011;55682;51.114;5.882;2024-01-27T12:47:05;2.86;;;2.42;;
68700;SDS011;55682;51.114;5.882;2024-01-27T12:49:31;2.84;;;2.40;;
68700;SDS011;55682;51.114;5.882;2024-01-27T12:51:57;3.32;;;2.85;;
68700;SDS011;55682;51.114;5.882;2024-01-27T12:54:23;2.79;;;2.41;;
68700;SDS011;55682;51.114;5.882;2024-01-27T12:56:48;2.68;;;2.34;;
68700;SDS011;55682;51.114;5.882;2024-01-27T12:59:14;2.74;;;2.39;;
68700;SDS011;55682;51.114;5.882;2024-01-27T13:01:40;2.72;;;2.40;;
68700;SDS011;55682;51.114;5.882;2024-01-27T13:04:07;2.70;;;2.41;;
68700;SDS011;55682;51.114;5.882;2024-01-27T13:06:32;3.33;;;3.02;;
68700;SDS011;55682;51.114;5.882;2024-01-27T13:08:59;2.95;;;2.69;;
68700;SDS011;55682;51.114;5.882;2024-01-27T13:11:24;3.11;;;2.88;;
68700;SDS011;55682;51.114;5.882;2024-01-27T13:13:50;2.75;;;2.53;;
68700;SDS011;55682;51.114;5.882;2024-01-27T13:16:17;2.83;;;2.60;;
68700;SDS011;55682;51.114;5.882;2024-01-27T13:18:42;3.05;;;2.72;;
68700;SDS011;55682;51.114;5.882;2024-01-27T13:21:09;2.93;;;2.60;;
68700;SDS011;55682;51.114;5.882;2024-01-27T13:23:35;3.34;;;2.95;;
68700;SDS011;55682;51.114;5.882;2024-01-27T13:26:01;3.26;;;2.77;;
68700;SDS011;55682;51.114;5.882;2024-01-27T13:28:27;3.38;;;2.86;;
68700;SDS011;55682;51.114;5.882;2024-01-27T13:30:52;3.23;;;2.76;;
68700;SDS011;55682;51.114;5.882;2024-01-27T13:33:18;2.80;;;2.37;;
68700;SDS011;55682;51.114;5.882;2024-01-27T13:35:44;3.12;;;2.64;;
68700;SDS011;55682;51.114;5.882;2024-01-27T13:38:13;3.08;;;2.69;;
68700;SDS011;55682;51.114;5.882;2024-01-27T13:40:38;2.57;;;2.31;;
68700;SDS011;55682;51.114;5.882;2024-01-27T13:43:04;2.70;;;2.31;;
68700;SDS011;55682;51.114;5.882;2024-01-27T13:45:31;3.05;;;2.62;;
68700;SDS011;55682;51.114;5.882;2024-01-27T13:47:57;3.17;;;2.73;;
68700;SDS011;55682;51.114;5.882;2024-01-27T13:50:23;2.78;;;2.42;;
68700;SDS011;55682;51.114;5.882;2024-01-27T13:52:52;2.88;;;2.47;;
68700;SDS011;55682;51.114;5.882;2024-01-27T13:55:18;2.92;;;2.45;;
68700;SDS011;55682;51.114;5.882;2024-01-27T13:57:44;3.20;;;2.70;;
68700;SDS011;55682;51.114;5.882;2024-01-27T14:00:10;3.26;;;2.77;;
68700;SDS011;55682;51.114;5.882;2024-01-27T14:02:37;3.02;;;2.67;;
68700;SDS011;55682;51.114;5.882;2024-01-27T14:05:03;3.01;;;2.71;;
68700;SDS011;55682;51.114;5.882;2024-01-27T14:07:29;2.83;;;2.61;;
68700;SDS011;55682;51.114;5.882;2024-01-27T14:09:55;2.82;;;2.56;;
68700;SDS011;55682;51.114;5.882;2024-01-27T14:12:21;2.74;;;2.52;;
68700;SDS011;55682;51.114;5.882;2024-01-27T14:14:48;2.64;;;2.44;;
68700;SDS011;55682;51.114;5.882;2024-01-27T14:17:15;2.61;;;2.41;;
68700;SDS011;55682;51.114;5.882;2024-01-27T14:19:42;2.68;;;2.47;;
68700;SDS011;55682;51.114;5.882;2024-01-27T14:22:08;2.82;;;2.55;;
68700;SDS011;55682;51.114;5.882;2024-01-27T14:24:34;3.01;;;2.77;;
68700;SDS011;55682;51.114;5.882;2024-01-27T14:26:59;2.90;;;2.74;;
68700;SDS011;55682;51.114;5.882;2024-01-27T14:29:25;3.03;;;2.90;;
68700;SDS011;55682;51.114;5.882;2024-01-27T14:31:51;2.94;;;2.78;;
68700;SDS011;55682;51.114;5.882;2024-01-27T14:34:17;3.26;;;3.00;;
68700;SDS011;55682;51.114;5.882;2024-01-27T14:36:44;2.96;;;2.76;;
68700;SDS011;55682;51.114;5.882;2024-01-27T14:39:09;2.83;;;2.65;;
68700;SDS011;55682;51.114;5.882;2024-01-27T14:41:39;3.14;;;2.91;;
68700;SDS011;55682;51.114;5.882;2024-01-27T14:44:05;2.85;;;2.63;;
68700;SDS011;55682;51.114;5.882;2024-01-27T14:46:31;2.84;;;2.55;;
68700;SDS011;55682;51.114;5.882;2024-01-27T14:48:57;3.09;;;2.76;;
68700;SDS011;55682;51.114;5.882;2024-01-27T14:51:23;3.55;;;3.14;;